Briefing drone pour Crest

Rechercher une autre localisation

Conditions de vol :


Nous sommes le : Samedi 23 octobre 2021
Il est 17:16 UTC (19:16 LT)

Lever de soleil : 05:39 UTC (07:39 LT)
Coucher de soleil : 17:08 UTC (19:08 LT)

Météo

L'essentiel des conditions de vol

VIGILANCE MÉTÉO FRANCE - Drôme (26)
Pas de vigilances particulieres
METAR de LFLU
LFLU 231700Z AUTO 36008KT CAVOK 10/04 Q1024

Date d'émission: 23/10/2021
Heure d'émission: 17:00 UTC
Vent: 360° pour 8 KT (15 km/h)
Visibilité horizontale: > 10 km
Plafond : Plafond et visibilité OK (CAVOK)
Température: 10 °C
Point de rosée: 4 °C
Humidité: 66%
Pression (QNH): 1024 hPa
Prévision 24h pour Valence (15 km)
Vent : 219° pour 1 KT (3 km/h)
Temperature Maxi: 17 °C
Temperature Min: 17 °C
Humidité : 49%
Condition : Ciel dégagé



Warning: count(): Parameter must be an array or an object that implements Countable in /homepages/6/d509196549/htdocs/droneoxygene/briefing.php on line 743
WEBCAM POUR CREST

Réglementation

Voler en sécurité

CARTES AERONAUTIQUE 1/500.000
CARTES VAC (LFLU)
SUP AIP




Chargement des AIP...
NOTAM (CREST + Terrain à proximité / FIR )




Chargement des NOTAMS...
CONTACT PREFECTURE 26
Drôme (26) : ddt-satem@drome.gouv.fr


Avertissement : Les données mises à disposition sont indicatives. Oxygène Drone ne pourra être tenu responsable de dégâts causés aux biens et aux personnes.